Time;durP1;ratioP1;P1;durP2;ratioP2;P2;SDS_P1;SDS_P2;PMS_P1;PMS_P2;Temp;Humidity;BMP_temperature;BMP_pressure;BME280_temperature;BME280_humidity;BME280_pressure;Samples;Min_cycle;Max_cycle;Signal;HPM_P1;HPM_P2
2021/09/30 00:01:23;;;;;;;19.83;17.70;;;;;;;18.79;84.62;100244.38;4864793;29;20049;-88
2021/09/30 00:03:49;;;;;;;23.27;19.27;;;;;;;18.72;84.76;100246.69;4864478;29;20135;-91
2021/09/30 00:06:16;;;;;;;22.90;17.20;;;;;;;18.72;85.04;100254.63;4865222;29;20169;-89
2021/09/30 00:08:43;;;;;;;22.83;17.35;;;;;;;18.70;85.21;100246.00;4864935;29;20118;-91
2021/09/30 00:11:13;;;;;;;24.08;18.38;;;;;;;18.68;85.43;100252.34;4865466;29;20053;-91
2021/09/30 00:13:47;;;;;;;31.42;19.27;;;;;;;18.72;85.36;100244.06;4864827;29;20185;-95
2021/09/30 00:46:01;;;;;;;23.92;19.17;;;;;;;18.51;86.04;100265.13;4863626;29;20052;-87
2021/09/30 01:20:50;;;;;;;19.33;15.48;;;;;;;18.32;86.39;100310.69;4877536;29;20128;-89
2021/09/30 01:46:39;;;;;;;24.02;17.70;;;;;;;18.10;88.60;100318.63;4888393;29;20136;-87
2021/09/30 02:58:39;;;;;;;40.20;28.10;;;;;;;16.67;100.00;100433.16;4875834;29;20132;-87
2021/09/30 03:01:16;;;;;;;43.85;28.92;;;;;;;16.74;100.00;100434.44;4860564;29;20076;-88
2021/09/30 03:03:47;;;;;;;41.78;28.73;;;;;;;16.77;100.00;100436.84;4859405;29;20060;-86
2021/09/30 03:06:15;;;;;;;41.78;27.73;;;;;;;16.64;100.00;100449.19;4863067;29;20062;-87
2021/09/30 03:08:46;;;;;;;42.08;28.08;;;;;;;16.66;100.00;100450.75;4893661;29;20072;-88
2021/09/30 03:11:15;;;;;;;41.38;28.80;;;;;;;16.62;100.00;100449.31;4878484;29;20045;-90
2021/09/30 03:13:45;;;;;;;39.60;27.08;;;;;;;16.55;100.00;100450.69;4892128;29;20092;-89
2021/09/30 03:23:44;;;;;;;34.95;23.88;;;;;;;16.68;100.00;100450.66;4894245;29;20079;-89
2021/09/30 03:26:12;;;;;;;33.30;22.77;;;;;;;16.60;100.00;100447.72;4886982;29;20492;-90
2021/09/30 03:28:44;;;;;;;37.85;22.33;;;;;;;16.71;100.00;100446.03;4860768;29;20045;-89
2021/09/30 03:31:12;;;;;;;34.53;23.75;;;;;;;16.73;100.00;100448.56;4846511;29;20050;-89
2021/09/30 03:34:00;;;;;;;35.03;23.73;;;;;;;16.83;100.00;100456.63;4846439;29;20145;-89
2021/09/30 03:36:31;;;;;;;37.85;25.05;;;;;;;16.95;100.00;100453.09;4845922;29;20053;-88
2021/09/30 03:38:58;;;;;;;35.72;23.77;;;;;;;16.98;100.00;100453.72;4862615;29;20045;-88
2021/09/30 03:41:25;;;;;;;41.42;25.73;;;;;;;16.93;100.00;100461.09;4864614;29;20037;-88
2021/09/30 03:43:52;;;;;;;38.08;24.35;;;;;;;17.05;100.00;100467.28;4879087;29;20492;-88
2021/09/30 03:46:19;;;;;;;38.45;26.27;;;;;;;17.16;100.00;100469.97;4863338;29;20109;-89
2021/09/30 03:49:10;;;;;;;44.00;26.50;;;;;;;17.25;100.00;100474.53;4875392;29;20060;-88
2021/09/30 03:59:58;;;;;;;36.92;25.17;;;;;;;17.44;100.00;100479.28;4865531;29;20459;-89
2021/09/30 04:02:40;;;;;;;36.67;25.48;;;;;;;17.43;100.00;100484.69;4847631;29;20042;-89
2021/09/30 04:05:07;;;;;;;36.83;23.42;;;;;;;17.45;100.00;100488.03;4861813;29;20050;-90
2021/09/30 04:07:34;;;;;;;36.42;26.02;;;;;;;17.53;100.00;100486.50;4863580;29;20343;-90
2021/09/30 04:10:04;;;;;;;34.67;23.77;;;;;;;17.49;100.00;100479.78;4872767;29;20053;-91
2021/09/30 04:12:31;;;;;;;37.08;25.50;;;;;;;17.48;100.00;100482.53;4863791;29;20149;-91
2021/09/30 04:15:00;;;;;;;42.88;26.35;;;;;;;17.62;100.00;100478.84;4862727;29;20058;-91
2021/09/30 04:17:27;;;;;;;38.28;26.73;;;;;;;17.56;100.00;100485.44;4878765;29;20041;-91
2021/09/30 04:19:54;;;;;;;44.97;25.85;;;;;;;17.39;100.00;100491.13;4862588;29;20045;-91
2021/09/30 04:22:20;;;;;;;35.75;24.58;;;;;;;17.55;100.00;100489.03;4865040;29;20050;-92
2021/09/30 04:24:48;;;;;;;39.80;24.63;;;;;;;17.51;100.00;100498.09;4862982;29;20053;-93
2021/09/30 04:27:17;;;;;;;38.88;26.85;;;;;;;17.49;100.00;100505.31;4873081;29;20070;-92
2021/09/30 04:29:46;;;;;;;49.03;29.63;;;;;;;17.60;100.00;100507.13;4867223;29;20049;-90
2021/09/30 04:32:13;;;;;;;43.33;27.92;;;;;;;17.71;100.00;100510.63;4868858;29;20500;-91
2021/09/30 04:34:40;;;;;;;47.55;28.42;;;;;;;17.73;100.00;100508.75;4864288;29;20046;-88
2021/09/30 04:37:09;;;;;;;42.53;29.45;;;;;;;17.62;100.00;100521.88;4862647;29;20067;-88
2021/09/30 04:39:38;;;;;;;54.05;28.95;;;;;;;17.69;100.00;100533.66;4880920;29;20094;-88
2021/09/30 04:42:05;;;;;;;38.03;27.40;;;;;;;17.79;100.00;100537.31;4881977;29;20045;-95
2021/09/30 04:44:32;;;;;;;47.38;32.60;;;;;;;17.72;100.00;100543.09;4883364;29;20046;-94
2021/09/30 04:46:59;;;;;;;42.08;28.83;;;;;;;17.84;100.00;100546.66;4877697;29;20500;-91
2021/09/30 04:49:46;;;;;;;40.15;25.38;;;;;;;17.42;100.00;100546.25;4868020;29;20063;-94
2021/09/30 04:52:13;;;;;;;41.20;29.33;;;;;;;17.41;100.00;100552.44;4867311;29;20064;-92
2021/09/30 04:54:40;;;;;;;38.10;27.80;;;;;;;17.39;100.00;100552.56;4873414;29;20052;-95
2021/09/30 04:57:11;;;;;;;38.15;26.13;;;;;;;17.34;100.00;100567.03;4864093;29;20094;-91
2021/09/30 04:59:38;;;;;;;39.63;27.02;;;;;;;17.38;100.00;100568.50;4866499;29;20129;-95
2021/09/30 05:02:24;;;;;;;45.95;26.60;;;;;;;17.36;100.00;100565.13;4865499;29;20094;-85
2021/09/30 05:04:51;;;;;;;39.55;26.63;;;;;;;17.24;100.00;100569.50;4861618;29;20501;-89
2021/09/30 05:07:18;;;;;;;42.88;26.17;;;;;;;17.26;100.00;100567.63;4874672;29;20073;-86
2021/09/30 05:09:47;;;;;;;42.60;26.13;;;;;;;17.23;100.00;100575.72;4874089;29;20049;-85
2021/09/30 05:12:16;;;;;;;36.33;24.90;;;;;;;17.18;100.00;100569.94;4861995;29;20082;-86
2021/09/30 05:14:43;;;;;;;32.15;22.00;;;;;;;16.94;100.00;100578.66;4861474;29;20501;-89
2021/09/30 05:17:12;;;;;;;35.78;24.20;;;;;;;16.83;100.00;100575.09;4866151;29;20060;-88
2021/09/30 05:19:39;;;;;;;36.63;22.50;;;;;;;16.80;100.00;100570.91;4853366;29;20065;-83
2021/09/30 05:22:09;;;;;;;30.98;20.60;;;;;;;16.55;100.00;100566.47;4858512;29;20075;-85
2021/09/30 05:24:36;;;;;;;28.98;19.45;;;;;;;16.59;100.00;100567.13;4860259;29;20493;-88
2021/09/30 05:27:03;;;;;;;29.45;19.02;;;;;;;16.78;100.00;100557.00;4880135;29;20045;-86
2021/09/30 05:29:30;;;;;;;26.08;18.77;;;;;;;16.38;100.00;100561.56;4860136;29;20039;-89
2021/09/30 05:32:07;;;;;;;34.72;20.70;;;;;;;16.73;100.00;100559.97;4859376;29;20049;-89
2021/09/30 05:34:36;;;;;;;27.42;19.38;;;;;;;16.69;100.00;100558.47;4866022;29;20520;-89
2021/09/30 05:37:03;;;;;;;21.20;13.88;;;;;;;16.64;100.00;100562.38;4860408;29;20140;-90
2021/09/30 05:39:30;;;;;;;18.55;13.70;;;;;;;16.81;100.00;100559.41;4872144;29;20114;-90
2021/09/30 05:41:58;;;;;;;15.82;10.95;;;;;;;16.82;100.00;100560.25;4861972;29;20049;-91
2021/09/30 05:44:26;;;;;;;15.80;11.38;;;;;;;16.98;100.00;100560.84;4861116;29;20038;-89
2021/09/30 05:46:55;;;;;;;16.00;10.50;;;;;;;17.02;100.00;100570.22;4872197;29;20049;-84
2021/09/30 05:49:23;;;;;;;14.82;10.18;;;;;;;17.06;100.00;100569.03;4852940;29;20038;-85
2021/09/30 05:52:07;;;;;;;22.05;11.63;;;;;;;17.15;100.00;100571.03;4856176;29;20045;-87
2021/09/30 05:54:43;;;;;;;15.98;10.35;;;;;;;17.14;100.00;100569.31;4860826;29;20046;-90
2021/09/30 05:57:17;;;;;;;17.05;11.10;;;;;;;17.32;100.00;100571.59;4875828;29;20149;-89
2021/09/30 05:59:44;;;;;;;22.23;12.18;;;;;;;17.52;100.00;100565.66;4879214;29;20380;-88
2021/09/30 06:10:21;;;;;;;17.42;12.27;;;;;;;17.03;100.00;100582.41;4890876;29;20049;-84
2021/09/30 06:12:52;;;;;;;12.63;10.10;;;;;;;16.99;100.00;100591.47;4875931;29;20041;-84
2021/09/30 06:15:26;;;;;;;16.73;9.23;;;;;;;16.98;100.00;100585.38;4869424;29;20049;-85
2021/09/30 06:17:56;;;;;;;12.95;8.10;;;;;;;16.98;100.00;100582.75;4882198;29;20111;-84
2021/09/30 06:20:23;;;;;;;13.95;7.80;;;;;;;17.49;99.95;100584.38;4868228;29;20132;-85
2021/09/30 06:22:52;;;;;;;16.67;9.68;;;;;;;17.59;98.92;100588.00;4866157;29;20508;-84
2021/09/30 06:25:20;;;;;;;14.95;9.68;;;;;;;17.53;98.53;100604.28;4860067;29;20053;-84
2021/09/30 06:27:47;;;;;;;12.43;6.90;;;;;;;17.85;96.36;100604.56;4868984;29;20420;-85
2021/09/30 06:30:14;;;;;;;11.20;7.43;;;;;;;17.76;96.47;100614.00;4860770;29;20500;-85
2021/09/30 06:32:49;;;;;;;11.82;8.35;;;;;;;17.70;96.84;100597.75;4877389;29;20075;-85
2021/09/30 06:35:36;;;;;;;20.55;9.95;;;;;;;17.68;97.05;100604.94;4854702;29;20084;-84
2021/09/30 06:38:03;;;;;;;15.13;7.72;;;;;;;17.69;96.42;100612.75;4888031;29;20068;-85
2021/09/30 06:40:31;;;;;;;11.15;8.25;;;;;;;18.11;93.93;100617.56;4878575;29;20072;-85
2021/09/30 06:42:58;;;;;;;13.38;7.18;;;;;;;17.69;96.56;100625.09;4870045;29;20049;-86
2021/09/30 06:45:28;;;;;;;19.05;7.28;;;;;;;17.98;94.71;100621.13;4878894;29;20052;-85
2021/09/30 06:48:33;;;;;;;13.70;7.90;;;;;;;18.36;92.36;100611.28;4879441;29;20378;-84
2021/09/30 06:51:04;;;;;;;16.23;9.75;;;;;;;18.45;90.61;100621.13;4865823;29;20053;-86
2021/09/30 06:53:42;;;;;;;12.50;7.88;;;;;;;18.44;90.55;100625.56;4861353;29;20071;-84
2021/09/30 06:56:11;;;;;;;10.05;6.35;;;;;;;18.33;91.06;100628.19;4860277;29;20041;-86
2021/09/30 06:59:34;;;;;;;7.47;6.47;;;;;;;18.06;91.95;100639.06;4879459;29;20045;-85
2021/09/30 07:02:41;;;;;;;14.93;7.53;;;;;;;17.99;93.22;100627.25;4844590;29;20549;-87
2021/09/30 07:05:26;;;;;;;9.93;6.13;;;;;;;18.41;90.69;100624.97;4840702;29;20114;-86
2021/09/30 07:08:07;;;;;;;12.52;5.93;;;;;;;18.50;89.95;100629.53;4863195;29;20053;-85
2021/09/30 07:10:33;;;;;;;17.88;7.20;;;;;;;18.63;89.84;100621.50;4870494;29;20045;-87
2021/09/30 07:13:00;;;;;;;12.23;6.85;;;;;;;18.27;90.96;100626.88;4879679;29;20136;-85
2021/09/30 07:15:27;;;;;;;9.07;6.82;;;;;;;18.13;92.81;100634.16;4879557;29;20061;-85
2021/09/30 07:17:56;;;;;;;15.00;8.35;;;;;;;18.53;91.27;100629.28;4879207;29;20057;-85
2021/09/30 07:20:23;;;;;;;12.73;8.57;;;;;;;18.73;90.13;100636.53;4879356;29;20041;-85
2021/09/30 07:22:50;;;;;;;14.40;10.70;;;;;;;18.84;89.11;100639.19;4879763;29;20064;-86
2021/09/30 07:25:17;;;;;;;24.73;14.93;;;;;;;18.51;90.36;100645.25;4874305;29;20037;-86
2021/09/30 07:27:43;;;;;;;18.45;12.30;;;;;;;17.86;95.80;100650.25;4871361;29;20437;-87
2021/09/30 07:30:10;;;;;;;17.80;8.65;;;;;;;17.86;95.66;100660.78;4879044;29;20041;-86
2021/09/30 07:32:37;;;;;;;11.13;8.70;;;;;;;17.64;97.30;100654.41;4879658;29;20041;-85
2021/09/30 07:35:04;;;;;;;21.98;9.43;;;;;;;17.90;94.37;100651.69;4872550;29;20041;-86
2021/09/30 07:37:31;;;;;;;18.50;10.68;;;;;;;18.03;93.46;100655.09;4860567;29;20054;-85
2021/09/30 07:39:58;;;;;;;15.50;11.65;;;;;;;17.83;95.66;100666.28;4872221;29;20571;-85
2021/09/30 07:42:25;;;;;;;15.02;9.75;;;;;;;17.67;96.59;100667.34;4879169;29;20400;-86
2021/09/30 07:44:52;;;;;;;14.13;7.95;;;;;;;17.72;96.78;100674.94;4861805;29;20515;-85
2021/09/30 07:47:18;;;;;;;10.98;7.93;;;;;;;17.86;96.15;100684.53;4860393;29;20057;-85
2021/09/30 07:49:45;;;;;;;16.98;7.30;;;;;;;17.89;95.41;100686.91;4860614;29;20565;-85
2021/09/30 07:52:12;;;;;;;12.50;6.70;;;;;;;17.64;97.38;100693.97;4859309;29;20400;-85
2021/09/30 07:54:39;;;;;;;14.75;7.22;;;;;;;17.63;97.99;100692.28;4877552;29;20056;-85
2021/09/30 07:57:06;;;;;;;11.52;8.65;;;;;;;17.68;97.80;100705.94;4878723;29;20049;-85
2021/09/30 07:59:33;;;;;;;16.88;7.80;;;;;;;18.35;92.63;100701.97;4866945;29;20493;-85
2021/09/30 08:02:00;;;;;;;8.82;5.03;;;;;;;17.94;95.88;100705.88;4860175;29;20049;-85
2021/09/30 08:04:27;;;;;;;5.57;4.70;;;;;;;18.01;94.84;100712.41;4860672;29;20041;-85
2021/09/30 08:06:53;;;;;;;8.98;3.78;;;;;;;18.17;93.02;100715.59;4860494;29;20049;-85
2021/09/30 08:09:20;;;;;;;9.55;3.90;;;;;;;18.51;91.36;100713.91;4865065;29;20601;-84
2021/09/30 08:11:50;;;;;;;6.82;3.75;;;;;;;18.14;93.43;100718.44;4883389;29;20488;-85
2021/09/30 08:14:17;;;;;;;7.07;4.93;;;;;;;18.13;94.33;100716.78;4882654;29;20094;-85
2021/09/30 08:16:44;;;;;;;11.52;4.97;;;;;;;18.50;92.15;100719.31;4882829;29;20105;-84
2021/09/30 08:19:10;;;;;;;15.35;6.07;;;;;;;18.99;89.13;100715.56;4896545;29;20057;-85
2021/09/30 08:21:44;;;;;;;9.00;6.75;;;;;;;18.61;90.47;100727.25;4882695;29;20129;-85
2021/09/30 08:24:16;;;;;;;6.78;4.03;;;;;;;18.96;88.89;100718.44;4864689;29;20511;-85
2021/09/30 08:26:46;;;;;;;6.00;5.05;;;;;;;19.28;86.40;100715.91;4863900;29;20107;-85
2021/09/30 08:29:15;;;;;;;8.55;4.25;;;;;;;19.08;88.54;100717.50;4863474;29;20042;-85
2021/09/30 08:31:43;;;;;;;6.95;5.00;;;;;;;18.71;89.98;100725.63;4863753;29;20516;-85
2021/09/30 08:34:10;;;;;;;8.23;4.05;;;;;;;19.10;87.92;100718.22;4870911;29;20053;-85
2021/09/30 08:36:36;;;;;;;10.00;5.60;;;;;;;19.26;86.83;100723.13;4882177;29;20049;-85
2021/09/30 08:39:06;;;;;;;12.20;5.38;;;;;;;18.95;89.26;100727.31;4882068;29;20481;-85
2021/09/30 08:41:35;;;;;;;7.88;4.07;;;;;;;18.72;89.91;100740.50;4873173;29;20041;-85
2021/09/30 08:44:04;;;;;;;12.55;4.63;;;;;;;18.94;88.50;100739.69;4864256;29;20052;-85
2021/09/30 08:46:31;;;;;;;12.07;3.28;;;;;;;18.90;87.19;100743.53;4882141;29;20049;-85
2021/09/30 08:48:59;;;;;;;5.50;2.95;;;;;;;19.07;85.04;100735.16;4873435;29;20148;-85
2021/09/30 08:51:27;;;;;;;3.33;2.10;;;;;;;18.37;89.86;100748.41;4881429;29;20041;-85
2021/09/30 08:53:54;;;;;;;6.63;2.15;;;;;;;18.39;88.72;100748.31;4877907;29;20046;-86
2021/09/30 08:56:21;;;;;;;6.50;2.53;;;;;;;18.80;86.00;100743.41;4862642;29;20061;-86
2021/09/30 08:58:47;;;;;;;5.82;2.20;;;;;;;18.75;86.36;100752.63;4863235;29;20057;-85
2021/09/30 09:01:14;;;;;;;3.97;2.53;;;;;;;19.12;84.62;100742.69;4863010;29;20049;-85
2021/09/30 09:03:46;;;;;;;4.03;2.40;;;;;;;18.61;85.98;100743.09;4869817;29;20069;-85
2021/09/30 09:06:30;;;;;;;4.07;2.30;;;;;;;19.29;82.44;100739.59;4880561;29;20084;-86
2021/09/30 09:09:24;;;;;;;3.47;1.75;;;;;;;18.63;85.06;100746.44;4881164;29;20057;-85
2021/09/30 09:11:54;;;;;;;5.20;2.78;;;;;;;19.02;82.85;100741.75;4880238;29;20049;-85
2021/09/30 09:14:30;;;;;;;6.78;3.42;;;;;;;19.67;79.73;100743.69;4881682;29;20137;-85
2021/09/30 09:17:00;;;;;;;9.95;3.28;;;;;;;19.87;78.78;100750.84;4869997;29;20540;-85
2021/09/30 09:19:36;;;;;;;5.38;2.70;;;;;;;20.11;77.09;100750.66;4881407;29;20097;-86
2021/09/30 09:22:10;;;;;;;8.27;2.95;;;;;;;20.38;76.58;100754.63;4881545;29;20124;-86
2021/09/30 09:25:14;;;;;;;6.97;3.17;;;;;;;20.33;74.49;100755.00;4881149;29;20049;-86
2021/09/30 09:27:45;;;;;;;5.90;2.72;;;;;;;19.88;77.96;100755.19;4881418;29;20049;-86
2021/09/30 09:30:35;;;;;;;7.10;2.45;;;;;;;20.71;74.37;100755.44;4881084;29;20399;-85
2021/09/30 09:33:07;;;;;;;8.60;1.92;;;;;;;20.19;75.52;100754.47;4877123;29;20061;-86
2021/09/30 09:36:11;;;;;;;2.55;2.13;;;;;;;19.98;76.93;100757.09;4881338;29;20053;-86
2021/09/30 09:38:41;;;;;;;7.32;2.30;;;;;;;20.24;75.51;100762.88;4877586;29;20052;-87
2021/09/30 09:41:12;;;;;;;4.80;2.70;;;;;;;19.48;79.50;100757.47;4877923;29;20053;-87
2021/09/30 09:43:42;;;;;;;14.23;3.75;;;;;;;19.93;77.08;100753.97;4869349;29;20053;-87
2021/09/30 09:46:13;;;;;;;9.63;3.10;;;;;;;20.22;75.55;100751.56;4880357;29;20132;-88
2021/09/30 09:48:53;;;;;;;3.40;2.25;;;;;;;20.41;74.48;100759.69;4871117;29;20057;-87
2021/09/30 09:51:20;;;;;;;9.98;3.42;;;;;;;20.98;72.93;100755.75;4862049;29;20046;-87
2021/09/30 09:53:46;;;;;;;7.40;3.08;;;;;;;21.42;69.94;100757.25;4876437;29;20556;-88
2021/09/30 09:56:20;;;;;;;4.45;3.42;;;;;;;20.58;74.05;100761.78;4874140;29;20117;-88
2021/09/30 09:58:55;;;;;;;8.40;4.30;;;;;;;20.90;72.74;100760.88;4862204;29;20485;-87
2021/09/30 10:01:25;;;;;;;9.40;4.18;;;;;;;21.78;68.20;100754.97;4862105;29;20133;-85
2021/09/30 10:04:00;;;;;;;9.82;3.97;;;;;;;20.35;75.62;100755.75;4879075;29;20056;-88
2021/09/30 10:06:30;;;;;;;12.18;4.65;;;;;;;21.87;69.17;100751.50;4880533;29;20125;-88
2021/09/30 10:08:58;;;;;;;4.50;3.13;;;;;;;21.17;71.41;100745.25;4879408;29;20568;-87
2021/09/30 10:11:26;;;;;;;10.00;3.67;;;;;;;21.62;68.67;100746.69;4877188;29;20144;-86
2021/09/30 10:13:57;;;;;;;6.28;4.20;;;;;;;23.01;63.99;100752.63;4880453;29;20073;-88
2021/09/30 10:16:24;;;;;;;9.15;3.90;;;;;;;21.05;70.77;100756.09;4880279;29;20496;-86
2021/09/30 10:19:01;;;;;;;9.93;4.40;;;;;;;21.16;70.46;100756.84;4879440;29;20075;-88
2021/09/30 10:21:30;;;;;;;10.82;4.57;;;;;;;21.09;71.70;100750.41;4869263;29;20047;-85
2021/09/30 10:24:12;;;;;;;12.48;4.35;;;;;;;21.97;68.58;100756.81;4880092;29;20566;-86
2021/09/30 10:26:45;;;;;;;8.45;4.78;;;;;;;21.26;70.46;100748.94;4880402;29;20055;-86
2021/09/30 10:29:46;;;;;;;10.82;4.60;;;;;;;21.47;70.73;100753.38;4879621;29;20045;-85
2021/09/30 10:32:18;;;;;;;21.00;5.60;;;;;;;21.75;68.04;100751.78;4858115;29;20048;-87
2021/09/30 10:34:47;;;;;;;7.38;5.22;;;;;;;21.36;70.81;100747.19;4866946;29;20101;-87
2021/09/30 10:37:31;;;;;;;6.15;4.05;;;;;;;21.72;68.82;100747.56;4862779;29;20061;-86
2021/09/30 10:40:16;;;;;;;7.13;4.07;;;;;;;22.43;65.76;100753.53;4861858;29;20117;-87
2021/09/30 10:42:56;;;;;;;12.43;5.45;;;;;;;22.20;67.21;100752.13;4870256;29;20075;-86
2021/09/30 10:45:40;;;;;;;10.85;5.50;;;;;;;22.25;66.84;100760.50;4879953;29;20045;-84
2021/09/30 10:48:27;;;;;;;;;;;;;;;21.74;68.27;100756.25;4863843;29;20065;-85
2021/09/30 10:50:56;;;;;;;8.15;3.63;;;;;;;20.40;73.78;100758.84;4861015;29;20014;-86
2021/09/30 10:53:50;;;;;;;10.65;4.95;;;;;;;21.21;71.89;100759.09;4870138;29;20105;-88
2021/09/30 10:56:41;;;;;;;7.30;3.45;;;;;;;21.16;70.55;100743.59;4866498;29;20053;-86
2021/09/30 10:59:08;;;;;;;8.55;3.88;;;;;;;20.67;72.77;100749.59;4877123;29;20492;-86
2021/09/30 11:01:46;;;;;;;7.60;5.05;;;;;;;22.09;67.66;100749.56;4879565;29;20052;-86
2021/09/30 11:04:15;;;;;;;7.53;4.88;;;;;;;21.61;68.37;100745.84;4869321;29;20052;-86
2021/09/30 11:07:02;;;;;;;8.80;4.68;;;;;;;21.49;69.34;100751.41;4860763;29;20454;-85
2021/09/30 11:09:29;;;;;;;6.50;3.90;;;;;;;21.65;69.05;100751.75;4862557;29;20097;-87
2021/09/30 11:12:13;;;;;;;5.63;4.25;;;;;;;20.12;74.37;100748.84;4879219;29;20045;-85
2021/09/30 11:14:57;;;;;;;17.60;5.43;;;;;;;20.98;72.32;100747.81;4862467;29;20046;-86
2021/09/30 11:17:37;;;;;;;5.80;3.95;;;;;;;20.69;73.13;100744.16;4864630;29;20101;-85
2021/09/30 11:20:36;;;;;;;5.28;4.05;;;;;;;20.76;72.94;100746.16;4879427;29;20496;-85
2021/09/30 11:23:04;;;;;;;8.63;4.25;;;;;;;21.50;69.97;100739.81;4878684;29;20045;-86
2021/09/30 11:26:06;;;;;;;6.43;4.22;;;;;;;21.18;71.41;100746.09;4879550;29;20507;-86
2021/09/30 11:28:37;;;;;;;9.63;6.22;;;;;;;21.41;69.72;100746.75;4842601;29;20072;-86
2021/09/30 11:31:30;;;;;;;11.88;5.82;;;;;;;21.54;69.42;100743.91;4846427;29;20133;-86
2021/09/30 11:33:59;;;;;;;5.82;4.80;;;;;;;22.26;66.69;100738.28;4879163;29;20120;-86
2021/09/30 11:36:34;;;;;;;5.85;4.95;;;;;;;23.47;61.02;100726.94;4878750;29;20540;-86
2021/09/30 11:39:06;;;;;;;6.50;4.88;;;;;;;22.47;65.46;100744.28;4878618;29;20052;-88
2021/09/30 11:41:35;;;;;;;6.68;4.50;;;;;;;23.96;59.85;100728.31;4866308;29;20041;-85
2021/09/30 11:44:03;;;;;;;9.15;5.10;;;;;;;23.49;61.24;100727.66;4862759;29;20429;-87
2021/09/30 11:46:35;;;;;;;7.90;5.05;;;;;;;24.60;57.45;100725.56;4860190;29;20045;-88
2021/09/30 11:49:08;;;;;;;11.95;5.43;;;;;;;22.10;65.78;100725.56;4863218;29;20049;-85
2021/09/30 11:51:35;;;;;;;8.27;4.40;;;;;;;22.25;65.62;100728.63;4863546;29;20934;-86
2021/09/30 11:54:02;;;;;;;6.75;3.92;;;;;;;21.69;68.07;100730.13;4865256;29;20045;-85
2021/09/30 11:56:40;;;;;;;9.50;4.45;;;;;;;22.77;63.95;100721.16;4866026;29;20394;-88
2021/09/30 11:59:08;;;;;;;8.50;5.13;;;;;;;22.89;63.36;100717.38;4863836;29;20422;-87
2021/09/30 12:01:36;;;;;;;6.55;3.95;;;;;;;22.98;63.78;100716.50;4857428;29;20049;-86
2021/09/30 12:04:07;;;;;;;9.20;4.63;;;;;;;22.31;66.35;100711.31;4869576;29;20069;-86
2021/09/30 12:06:47;;;;;;;5.35;4.22;;;;;;;21.65;68.83;100714.59;4858983;29;20057;-85
2021/09/30 12:09:15;;;;;;;6.80;4.45;;;;;;;21.44;68.93;100715.53;4859092;29;20060;-85
2021/09/30 12:11:59;;;;;;;6.70;4.60;;;;;;;20.91;72.01;100705.09;4859324;29;20109;-85
2021/09/30 12:14:43;;;;;;;12.77;7.33;;;;;;;22.00;68.07;100710.56;4857281;29;20122;-86
2021/09/30 12:17:16;;;;;;;13.45;5.75;;;;;;;22.27;66.75;100702.81;4859414;29;20298;-87
2021/09/30 12:19:46;;;;;;;8.10;5.17;;;;;;;21.33;69.92;100705.03;4861214;29;20049;-87
2021/09/30 12:22:14;;;;;;;7.47;4.18;;;;;;;21.38;70.33;100701.97;4857472;29;20046;-86
2021/09/30 12:24:45;;;;;;;7.60;5.10;;;;;;;21.19;71.32;100705.34;4860409;29;20045;-84
2021/09/30 12:27:12;;;;;;;8.75;5.45;;;;;;;21.97;69.04;100699.28;4861291;29;20056;-87
2021/09/30 12:29:42;;;;;;;9.65;5.63;;;;;;;21.91;68.85;100691.03;4860547;29;20144;-83
2021/09/30 12:32:13;;;;;;;8.63;5.95;;;;;;;21.61;69.55;100690.16;4857996;29;20568;-85
2021/09/30 12:34:40;;;;;;;14.52;6.53;;;;;;;21.56;69.56;100688.88;4858215;29;20045;-85
2021/09/30 12:37:06;;;;;;;16.83;6.90;;;;;;;22.36;66.85;100686.00;4858970;29;20056;-84
2021/09/30 12:39:34;;;;;;;7.78;5.57;;;;;;;22.63;66.49;100673.78;4859569;29;20064;-85
2021/09/30 12:42:16;;;;;;;11.18;6.55;;;;;;;21.79;68.23;100687.69;4864645;29;20041;-85
2021/09/30 12:44:49;;;;;;;8.82;5.25;;;;;;;22.57;65.92;100679.66;4861452;29;20049;-82
2021/09/30 12:47:29;;;;;;;9.98;5.80;;;;;;;22.62;65.57;100674.75;4856879;29;20078;-84
2021/09/30 12:50:10;;;;;;;9.70;5.55;;;;;;;22.30;66.71;100673.28;4858837;29;20037;-85
2021/09/30 12:52:39;;;;;;;9.18;7.43;;;;;;;22.22;67.49;100675.84;4860687;29;20049;-84
2021/09/30 12:55:21;;;;;;;9.85;6.93;;;;;;;23.13;64.03;100666.34;4856949;29;20038;-82
2021/09/30 12:57:47;;;;;;;8.63;6.32;;;;;;;23.38;62.62;100671.94;4865194;29;20078;-84
2021/09/30 13:00:18;;;;;;;12.20;7.65;;;;;;;24.16;60.12;100665.09;4866340;29;20038;-84
2021/09/30 13:02:47;;;;;;;10.25;7.00;;;;;;;23.21;62.33;100662.94;4860388;29;20049;-86
2021/09/30 13:05:16;;;;;;;11.98;7.50;;;;;;;23.12;63.03;100663.84;4861432;29;20132;-84
2021/09/30 13:07:44;;;;;;;9.80;7.05;;;;;;;22.96;63.69;100662.66;4858324;29;20561;-86
2021/09/30 13:10:12;;;;;;;11.90;6.05;;;;;;;23.47;62.45;100647.94;4859441;29;20050;-85
2021/09/30 13:13:14;;;;;;;9.93;6.00;;;;;;;23.90;60.53;100646.41;4860158;29;20060;-86
2021/09/30 13:15:49;;;;;;;12.68;7.03;;;;;;;22.62;65.03;100651.69;4857162;29;20041;-85
2021/09/30 13:18:16;;;;;;;9.40;5.88;;;;;;;22.55;65.92;100642.63;4857310;29;20050;-85
2021/09/30 13:21:04;;;;;;;7.38;6.25;;;;;;;22.55;66.32;100644.44;4859021;29;20082;-85
2021/09/30 13:23:39;;;;;;;10.38;7.22;;;;;;;22.57;66.31;100631.84;4857208;29;20105;-85
2021/09/30 13:26:06;;;;;;;13.30;7.20;;;;;;;23.09;64.09;100634.88;4858290;29;20050;-87
2021/09/30 13:28:33;;;;;;;10.15;8.30;;;;;;;22.66;66.00;100631.00;4859437;29;20409;-84
2021/09/30 13:31:00;;;;;;;10.98;7.53;;;;;;;22.82;63.28;100633.88;4859448;29;20048;-86
2021/09/30 13:33:27;;;;;;;7.95;6.72;;;;;;;22.52;64.45;100634.09;4859288;29;20049;-87
2021/09/30 13:35:54;;;;;;;8.77;6.65;;;;;;;22.17;65.24;100633.78;4860531;29;20069;-86
2021/09/30 13:38:21;;;;;;;10.35;7.00;;;;;;;22.85;63.01;100630.06;4860240;29;20145;-86
2021/09/30 13:40:48;;;;;;;10.77;7.40;;;;;;;21.96;66.25;100628.59;4858951;29;20485;-84
2021/09/30 13:43:16;;;;;;;11.30;6.80;;;;;;;22.74;62.87;100623.09;4857309;29;20100;-87
2021/09/30 13:45:43;;;;;;;7.68;6.75;;;;;;;22.70;61.86;100619.09;4857537;29;20037;-87
2021/09/30 13:48:10;;;;;;;7.28;6.50;;;;;;;22.57;62.14;100619.41;4858810;29;20056;-87
2021/09/30 13:50:37;;;;;;;8.90;6.18;;;;;;;22.80;60.58;100617.25;4860227;29;20397;-87
2021/09/30 13:53:04;;;;;;;12.20;6.22;;;;;;;22.96;60.94;100609.50;4859437;29;20405;-84
2021/09/30 13:55:33;;;;;;;10.15;6.70;;;;;;;22.90;60.51;100610.06;4858229;29;20401;-85
2021/09/30 13:58:00;;;;;;;10.13;7.28;;;;;;;23.05;60.41;100607.75;4863078;29;20073;-87
2021/09/30 14:00:27;;;;;;;7.18;6.15;;;;;;;22.75;60.87;100609.69;4859892;29;20037;-82
2021/09/30 14:02:54;;;;;;;8.85;6.45;;;;;;;22.91;61.25;100598.47;4870279;29;20064;-86
2021/09/30 14:05:21;;;;;;;8.80;5.82;;;;;;;22.77;61.81;100596.25;4855792;29;20053;-84
2021/09/30 14:07:50;;;;;;;9.90;5.57;;;;;;;22.73;61.39;100592.22;4852798;29;20068;-82
2021/09/30 14:10:19;;;;;;;6.20;4.80;;;;;;;22.25;63.20;100601.19;4844901;29;20060;-83
2021/09/30 14:12:49;;;;;;;8.45;5.35;;;;;;;22.73;62.35;100594.88;4863793;29;20053;-87
2021/09/30 14:15:17;;;;;;;7.45;4.90;;;;;;;22.19;63.52;100591.97;4853878;29;20069;-85
2021/09/30 14:17:44;;;;;;;7.38;4.50;;;;;;;22.48;62.36;100586.59;4867484;29;20053;-83
2021/09/30 14:20:12;;;;;;;9.13;5.55;;;;;;;22.54;60.84;100589.66;4858495;29;20040;-85
2021/09/30 14:22:39;;;;;;;8.68;4.13;;;;;;;22.36;61.87;100587.72;4847869;29;20054;-83
2021/09/30 14:25:07;;;;;;;6.05;4.28;;;;;;;22.73;60.32;100590.38;4852619;29;20049;-83
2021/09/30 14:27:35;;;;;;;9.30;4.63;;;;;;;22.87;58.96;100586.41;4860186;29;20137;-85
2021/09/30 14:30:04;;;;;;;5.38;3.83;;;;;;;23.16;58.28;100588.09;4870419;29;20449;-85
2021/09/30 14:32:49;;;;;;;10.32;4.85;;;;;;;23.19;58.58;100585.16;4868158;29;20070;-86
2021/09/30 14:35:17;;;;;;;5.05;4.25;;;;;;;22.73;60.06;100590.38;4867399;29;20049;-84
2021/09/30 14:37:45;;;;;;;7.63;4.82;;;;;;;22.96;58.68;100590.06;4867447;29;20053;-85